Time;durP1;ratioP1;P1;durP2;ratioP2;P2;SDS_P1;SDS_P2;PMS_P1;PMS_P2;Temp;Humidity;BMP_temperature;BMP_pressure;BME280_temperature;BME280_humidity;BME280_pressure;Samples;Min_cycle;Max_cycle;Signal;HPM_P1;HPM_P2
2021/09/13 00:01:57;;;;;;;15.37;12.80;;;16.10;99.90;;;;;;5057596;28;20229;-71
2021/09/13 00:04:23;;;;;;;14.87;13.07;;;16.10;99.90;;;;;;5057263;28;20185;-72
2021/09/13 00:06:48;;;;;;;14.70;13.13;;;16.20;99.90;;;;;;5055633;28;20174;-72
2021/09/13 00:09:14;;;;;;;13.63;11.40;;;16.20;99.90;;;;;;5056929;28;20631;-71
2021/09/13 00:11:39;;;;;;;13.90;12.50;;;16.10;99.90;;;;;;5055830;28;20198;-71
2021/09/13 00:14:05;;;;;;;13.33;11.90;;;16.10;99.90;;;;;;5056767;28;20198;-72
2021/09/13 00:16:30;;;;;;;15.77;14.13;;;16.10;99.90;;;;;;5055633;28;20304;-71
2021/09/13 00:18:56;;;;;;;15.50;13.23;;;16.00;99.90;;;;;;5056178;28;20223;-71
2021/09/13 00:21:21;;;;;;;14.73;13.23;;;16.00;99.90;;;;;;5056614;28;20190;-72
2021/09/13 00:23:47;;;;;;;15.87;13.33;;;16.00;99.90;;;;;;5057203;28;20175;-71
2021/09/13 00:26:13;;;;;;;13.80;12.33;;;16.00;99.90;;;;;;5055910;28;20749;-72
2021/09/13 00:28:38;;;;;;;14.87;13.47;;;16.00;99.90;;;;;;5055315;28;20289;-71
2021/09/13 00:31:04;;;;;;;16.30;13.50;;;15.90;99.90;;;;;;5056849;28;20186;-72
2021/09/13 00:33:29;;;;;;;16.40;13.17;;;16.00;99.90;;;;;;5056688;28;20198;-71
2021/09/13 00:35:55;;;;;;;14.07;12.63;;;16.00;99.90;;;;;;5056588;28;20216;-71
2021/09/13 00:38:21;;;;;;;14.83;13.20;;;15.90;99.90;;;;;;5044952;28;20215;-72
2021/09/13 00:40:46;;;;;;;14.53;12.40;;;15.90;99.90;;;;;;5036468;28;20191;-71
2021/09/13 00:43:12;;;;;;;13.23;11.97;;;15.90;99.90;;;;;;5045150;28;20249;-72
2021/09/13 00:45:38;;;;;;;13.97;12.57;;;15.90;99.90;;;;;;5056642;28;20225;-72
2021/09/13 00:48:04;;;;;;;13.63;12.47;;;15.90;99.90;;;;;;5056285;28;20412;-72
2021/09/13 00:50:29;;;;;;;14.70;11.87;;;16.00;99.90;;;;;;5061011;28;20218;-71
2021/09/13 00:52:56;;;;;;;11.47;10.37;;;16.00;99.90;;;;;;5058037;28;20697;-71
2021/09/13 00:55:22;;;;;;;12.27;10.90;;;16.00;99.90;;;;;;5041620;28;20174;-71
2021/09/13 00:57:50;;;;;;;11.93;10.73;;;16.00;99.90;;;;;;5037893;28;20405;-71
2021/09/13 01:00:16;;;;;;;12.97;11.57;;;16.10;99.90;;;;;;5037641;28;20426;-71
2021/09/13 01:02:41;;;;;;;13.03;11.70;;;16.10;99.90;;;;;;5036501;28;20429;-71
2021/09/13 01:05:08;;;;;;;12.07;10.80;;;16.10;99.90;;;;;;5051329;28;20424;-71
2021/09/13 01:07:34;;;;;;;11.23;10.23;;;16.10;99.90;;;;;;5056169;28;20198;-70
2021/09/13 01:10:00;;;;;;;13.90;10.57;;;16.10;99.90;;;;;;5055991;28;20420;-71
2021/09/13 01:12:26;;;;;;;11.17;9.83;;;16.10;99.90;;;;;;5057210;28;20658;-72
2021/09/13 01:14:52;;;;;;;14.43;12.83;;;16.10;99.90;;;;;;5055014;28;20468;-71
2021/09/13 01:17:18;;;;;;;14.10;12.70;;;16.00;99.90;;;;;;5056194;28;20441;-71
2021/09/13 01:19:44;;;;;;;17.30;13.30;;;15.80;99.90;;;;;;5055655;28;20171;-70
2021/09/13 01:22:11;;;;;;;14.47;12.70;;;15.70;99.90;;;;;;5055789;28;20200;-71
2021/09/13 01:24:37;;;;;;;14.07;12.37;;;15.60;99.90;;;;;;5055348;28;20463;-72
2021/09/13 01:27:06;;;;;;;14.10;12.73;;;15.50;99.90;;;;;;5053294;28;20444;-72
2021/09/13 01:29:32;;;;;;;13.90;12.43;;;15.50;99.90;;;;;;5055517;28;20193;-72
2021/09/13 01:31:59;;;;;;;13.20;11.90;;;15.50;99.90;;;;;;5055742;28;20428;-71
2021/09/13 01:34:25;;;;;;;11.83;10.80;;;15.60;99.90;;;;;;5055834;28;20448;-71
2021/09/13 01:36:50;;;;;;;14.23;12.37;;;15.60;99.90;;;;;;5046773;28;20447;-71
2021/09/13 01:39:16;;;;;;;14.00;12.60;;;15.60;99.90;;;;;;5048618;28;20413;-71
2021/09/13 01:41:43;;;;;;;15.23;13.60;;;15.50;99.90;;;;;;5055086;28;20598;-71
2021/09/13 01:44:10;;;;;;;16.33;14.73;;;15.40;99.90;;;;;;5055855;28;20444;-71
2021/09/13 01:46:36;;;;;;;15.03;12.77;;;15.30;99.90;;;;;;5053822;28;20424;-71
2021/09/13 01:49:02;;;;;;;13.33;11.90;;;15.30;99.90;;;;;;5055376;28;20416;-71
2021/09/13 01:51:27;;;;;;;13.77;12.10;;;15.40;99.90;;;;;;5055202;28;20794;-71
2021/09/13 01:53:53;;;;;;;11.77;10.67;;;15.40;99.90;;;;;;5055306;28;20567;-71
2021/09/13 01:56:18;;;;;;;11.37;10.00;;;15.50;99.90;;;;;;5054873;28;20258;-71
2021/09/13 01:58:44;;;;;;;11.43;10.30;;;15.50;99.90;;;;;;5052164;28;20178;-71
2021/09/13 02:01:09;;;;;;;12.13;11.03;;;15.50;99.90;;;;;;5055287;28;20190;-71
2021/09/13 02:03:35;;;;;;;12.17;10.97;;;15.50;99.90;;;;;;5055187;28;20194;-71
2021/09/13 02:06:00;;;;;;;12.30;11.20;;;15.50;99.90;;;;;;5056285;28;20197;-72
2021/09/13 02:08:26;;;;;;;11.40;10.30;;;15.60;99.90;;;;;;5045746;28;20175;-71
2021/09/13 02:10:51;;;;;;;13.27;11.93;;;15.60;99.90;;;;;;5040460;28;20293;-72
2021/09/13 02:13:17;;;;;;;13.20;11.83;;;15.60;99.90;;;;;;5046851;28;20072;-71
2021/09/13 02:15:42;;;;;;;12.93;11.63;;;15.60;99.90;;;;;;5050366;28;20171;-71
2021/09/13 02:18:08;;;;;;;12.43;11.13;;;15.60;99.90;;;;;;5043498;28;20557;-72
2021/09/13 02:20:34;;;;;;;12.73;11.47;;;15.60;99.90;;;;;;5047449;28;20171;-71
2021/09/13 02:22:59;;;;;;;12.80;11.57;;;15.60;99.90;;;;;;5059304;28;20170;-71
2021/09/13 02:25:25;;;;;;;13.93;12.53;;;15.50;99.90;;;;;;5054833;28;20233;-72
2021/09/13 02:27:50;;;;;;;13.93;12.10;;;15.40;99.90;;;;;;5034995;28;20181;-72
2021/09/13 02:30:16;;;;;;;14.80;12.90;;;15.40;99.90;;;;;;5034335;28;20676;-71
2021/09/13 02:32:42;;;;;;;12.60;11.50;;;15.40;99.90;;;;;;5034593;28;20619;-72
2021/09/13 02:35:08;;;;;;;14.77;12.70;;;15.40;99.90;;;;;;5034573;28;20233;-72
2021/09/13 02:37:35;;;;;;;16.23;14.50;;;15.40;99.90;;;;;;5034321;28;20190;-70
2021/09/13 02:40:02;;;;;;;17.20;13.03;;;15.40;99.90;;;;;;5034964;28;20421;-72
2021/09/13 02:42:28;;;;;;;13.97;12.57;;;15.30;99.90;;;;;;5036246;28;20438;-72
2021/09/13 02:44:53;;;;;;;13.40;12.10;;;15.30;99.90;;;;;;5054626;28;20420;-72
2021/09/13 02:47:19;;;;;;;12.57;11.27;;;15.30;99.90;;;;;;5054228;28;20180;-71
2021/09/13 02:49:45;;;;;;;13.00;11.70;;;15.30;99.90;;;;;;5053861;28;20531;-71
2021/09/13 02:52:10;;;;;;;13.37;12.07;;;15.30;99.90;;;;;;5054376;28;20193;-71
2021/09/13 02:54:36;;;;;;;15.33;12.80;;;15.30;99.90;;;;;;5052401;28;20229;-71
2021/09/13 02:57:02;;;;;;;13.80;12.40;;;15.30;99.90;;;;;;5054642;28;20257;-71
2021/09/13 02:59:27;;;;;;;14.07;12.63;;;15.20;99.90;;;;;;5052513;28;20205;-71
2021/09/13 03:01:53;;;;;;;12.60;11.30;;;15.20;99.90;;;;;;5053851;28;20635;-72
2021/09/13 03:04:18;;;;;;;12.60;11.30;;;15.20;99.90;;;;;;5051089;28;20221;-72
2021/09/13 03:06:44;;;;;;;13.83;11.80;;;15.20;99.90;;;;;;5053181;28;20178;-72
2021/09/13 03:09:09;;;;;;;15.73;12.70;;;15.20;99.90;;;;;;5053060;28;20179;-70
2021/09/13 03:11:35;;;;;;;13.00;11.23;;;15.10;99.90;;;;;;5053505;28;20205;-71
2021/09/13 03:14:00;;;;;;;15.20;12.20;;;15.00;99.90;;;;;;5052530;28;20613;-71
2021/09/13 03:16:26;;;;;;;15.83;13.47;;;15.10;99.90;;;;;;5052865;28;20221;-72
2021/09/13 03:18:51;;;;;;;14.90;13.40;;;15.10;99.90;;;;;;5053065;28;20170;-72
2021/09/13 03:21:17;;;;;;;18.83;12.97;;;15.10;99.90;;;;;;5046615;28;20680;-71
2021/09/13 03:23:42;;;;;;;15.03;13.43;;;15.10;99.90;;;;;;5034253;28;20170;-71
2021/09/13 03:26:08;;;;;;;14.03;11.57;;;15.10;99.90;;;;;;5033912;28;20334;-72
2021/09/13 03:28:34;;;;;;;14.83;13.20;;;15.10;99.90;;;;;;5036506;28;20293;-72
2021/09/13 03:31:01;;;;;;;13.87;12.47;;;15.10;99.90;;;;;;5042444;28;20199;-70
2021/09/13 03:33:27;;;;;;;12.87;11.57;;;15.10;99.90;;;;;;5040405;28;20893;-72
2021/09/13 03:35:53;;;;;;;15.13;13.10;;;15.10;99.90;;;;;;5040967;28;20424;-70
2021/09/13 03:38:18;;;;;;;15.67;12.63;;;15.20;99.90;;;;;;5043897;28;20769;-71
2021/09/13 03:40:44;;;;;;;14.80;12.57;;;15.10;99.90;;;;;;5041738;28;20730;-71
2021/09/13 03:43:10;;;;;;;13.80;12.47;;;15.10;99.90;;;;;;5054621;28;20178;-71
2021/09/13 03:45:35;;;;;;;14.57;13.03;;;15.10;99.90;;;;;;5053434;28;20170;-71
2021/09/13 03:48:01;;;;;;;14.17;12.73;;;15.10;99.90;;;;;;5051973;28;20631;-72
2021/09/13 03:50:27;;;;;;;14.47;12.97;;;15.00;99.90;;;;;;5052993;28;20263;-72
2021/09/13 03:52:52;;;;;;;17.27;13.60;;;15.00;99.90;;;;;;5053321;28;20205;-72
2021/09/13 03:55:18;;;;;;;15.57;13.97;;;15.00;99.90;;;;;;5051294;28;20182;-72
2021/09/13 03:57:43;;;;;;;14.37;12.87;;;15.00;99.90;;;;;;5041058;28;20589;-72
2021/09/13 04:00:09;;;;;;;14.43;13.03;;;15.00;99.90;;;;;;5033003;28;20171;-72
2021/09/13 04:02:36;;;;;;;16.73;14.10;;;15.00;99.90;;;;;;5047579;28;20460;-72
2021/09/13 04:05:02;;;;;;;14.87;13.37;;;15.00;99.90;;;;;;5044434;28;20228;-72
2021/09/13 04:07:49;;;;;;;13.33;11.93;;;15.00;99.90;;;;;;5043608;28;20405;-72
2021/09/13 04:10:22;;;;;;;13.90;12.40;;;15.00;99.90;;;;;;5042023;28;20729;-72
2021/09/13 04:12:48;;;;;;;14.73;13.10;;;15.00;99.90;;;;;;5044020;28;21093;-72
2021/09/13 04:15:14;;;;;;;18.67;14.20;;;15.00;99.90;;;;;;5033869;28;20409;-72
2021/09/13 04:17:40;;;;;;;14.50;13.00;;;15.00;99.90;;;;;;5034412;28;20175;-72
2021/09/13 04:20:06;;;;;;;17.10;15.30;;;15.00;99.90;;;;;;5036322;28;20837;-72
2021/09/13 04:22:32;;;;;;;15.17;13.60;;;14.90;99.90;;;;;;5035590;28;20409;-72
2021/09/13 04:24:59;;;;;;;14.90;13.43;;;14.90;99.90;;;;;;5044107;28;20475;-71
2021/09/13 04:27:25;;;;;;;15.63;14.03;;;14.90;99.90;;;;;;5045307;28;20261;-71
2021/09/13 04:29:51;;;;;;;14.67;12.97;;;14.90;99.90;;;;;;5046344;28;20982;-71
2021/09/13 04:32:16;;;;;;;17.43;14.67;;;14.90;99.90;;;;;;5037641;28;20319;-72
2021/09/13 04:34:42;;;;;;;13.97;12.47;;;14.90;99.90;;;;;;5035818;28;20305;-71
2021/09/13 04:37:07;;;;;;;14.60;12.87;;;14.90;99.90;;;;;;5038178;28;20213;-72
2021/09/13 04:39:33;;;;;;;16.17;14.20;;;14.90;99.90;;;;;;5040406;28;20231;-71
2021/09/13 04:41:59;;;;;;;15.63;14.00;;;14.90;99.90;;;;;;5043709;28;20260;-72
2021/09/13 04:44:25;;;;;;;16.90;13.77;;;14.90;99.90;;;;;;5035378;28;20561;-72
2021/09/13 04:46:50;;;;;;;15.70;14.10;;;14.90;99.90;;;;;;5034522;28;20440;-71
2021/09/13 04:49:16;;;;;;;16.83;13.30;;;14.80;99.90;;;;;;5045014;28;20323;-70
2021/09/13 04:51:41;;;;;;;15.87;13.20;;;14.80;99.90;;;;;;5053917;28;20709;-72
2021/09/13 04:54:07;;;;;;;14.03;12.63;;;14.80;99.90;;;;;;5042804;28;20214;-72
2021/09/13 04:56:32;;;;;;;16.40;14.27;;;14.80;99.90;;;;;;5035052;28;20177;-72
2021/09/13 04:58:58;;;;;;;15.87;12.40;;;14.80;99.90;;;;;;5036076;28;20498;-72
2021/09/13 05:01:23;;;;;;;14.40;12.40;;;14.70;99.90;;;;;;5036168;28;20187;-73
2021/09/13 05:03:49;;;;;;;17.53;14.60;;;14.70;99.90;;;;;;5037865;28;20671;-73
2021/09/13 05:06:15;;;;;;;13.93;12.50;;;14.80;99.90;;;;;;5036056;28;20167;-73
2021/09/13 05:08:40;;;;;;;16.47;13.50;;;14.80;99.90;;;;;;5036071;28;20509;-73
2021/09/13 05:11:06;;;;;;;15.57;13.80;;;14.80;99.90;;;;;;5036466;28;20697;-72
2021/09/13 05:13:31;;;;;;;15.27;13.67;;;14.70;99.90;;;;;;5036702;28;20242;-71
2021/09/13 05:15:57;;;;;;;19.10;15.13;;;14.60;99.90;;;;;;5037847;28;20345;-72
2021/09/13 05:18:23;;;;;;;16.10;14.20;;;14.50;99.90;;;;;;5036380;28;20175;-72
2021/09/13 05:20:48;;;;;;;16.37;14.17;;;14.40;99.90;;;;;;5036716;28;20195;-72
2021/09/13 05:23:14;;;;;;;16.90;14.60;;;14.40;99.90;;;;;;5037003;28;20201;-72
2021/09/13 05:25:40;;;;;;;18.70;16.00;;;14.40;99.90;;;;;;5037950;28;20171;-72
2021/09/13 05:28:05;;;;;;;18.60;15.30;;;14.30;99.90;;;;;;5037794;28;20476;-71
2021/09/13 05:30:31;;;;;;;17.13;15.30;;;14.30;99.90;;;;;;5036623;28;20252;-71
2021/09/13 05:32:57;;;;;;;18.47;15.60;;;14.30;99.90;;;;;;5054156;28;20238;-71
2021/09/13 05:35:22;;;;;;;17.17;13.80;;;14.40;99.90;;;;;;5052700;28;20219;-72
2021/09/13 05:37:48;;;;;;;17.67;14.90;;;14.40;99.90;;;;;;5042783;28;20172;-72
2021/09/13 05:40:14;;;;;;;16.97;14.03;;;14.50;99.90;;;;;;5058102;28;20189;-72
2021/09/13 05:42:39;;;;;;;17.67;14.60;;;14.60;99.90;;;;;;5058246;28;20172;-71
2021/09/13 05:45:05;;;;;;;17.53;14.87;;;14.60;99.90;;;;;;5040191;28;20170;-72
2021/09/13 05:47:34;;;;;;;16.37;14.60;;;14.60;99.90;;;;;;5039344;28;20689;-71
2021/09/13 05:52:27;;;;;;;16.83;13.83;;;14.60;99.90;;;;;;5035983;28;20523;-72
2021/09/13 05:54:53;;;;;;;17.03;15.20;;;14.60;99.90;;;;;;5019319;28;20478;-72
2021/09/13 05:57:18;;;;;;;20.00;15.77;;;14.60;99.90;;;;;;5013105;28;20199;-71
2021/09/13 05:59:44;;;;;;;18.77;16.23;;;14.60;99.90;;;;;;5014777;28;20211;-72
2021/09/13 06:02:10;;;;;;;15.83;14.03;;;14.70;99.90;;;;;;5013278;28;20195;-73
2021/09/13 06:04:37;;;;;;;18.40;15.13;;;14.80;99.90;;;;;;5012214;28;20351;-72
2021/09/13 06:07:04;;;;;;;20.63;14.53;;;14.80;99.90;;;;;;5013945;28;20438;-72
2021/09/13 06:09:30;;;;;;;21.63;16.10;;;14.80;99.90;;;;;;5025257;28;20531;-71
2021/09/13 06:11:56;;;;;;;20.80;16.67;;;14.90;99.90;;;;;;5032316;28;20877;-70
2021/09/13 06:14:22;;;;;;;17.87;15.60;;;14.90;99.90;;;;;;5031752;28;20505;-71
2021/09/13 06:16:48;;;;;;;17.50;15.33;;;14.90;99.90;;;;;;5033162;28;20217;-72
2021/09/13 06:19:13;;;;;;;18.03;14.97;;;15.00;99.90;;;;;;5043980;28;20221;-72
2021/09/13 06:21:39;;;;;;;17.10;15.30;;;15.00;99.90;;;;;;5043632;28;20567;-72
2021/09/13 06:24:04;;;;;;;20.70;16.20;;;15.10;99.90;;;;;;5042329;28;20214;-71
2021/09/13 06:26:30;;;;;;;21.80;16.97;;;15.10;99.90;;;;;;5040616;28;20601;-71
2021/09/13 06:28:56;;;;;;;19.70;16.10;;;15.10;99.90;;;;;;5040808;28;20202;-72
2021/09/13 06:31:22;;;;;;;23.37;17.67;;;15.10;99.90;;;;;;5040273;28;20215;-71
2021/09/13 06:33:47;;;;;;;20.17;17.23;;;15.20;99.90;;;;;;5041008;28;20217;-71
2021/09/13 06:36:13;;;;;;;19.50;17.17;;;15.20;99.90;;;;;;5039488;28;20218;-71
2021/09/13 06:38:39;;;;;;;24.27;18.63;;;15.20;99.90;;;;;;5021616;28;20213;-72
2021/09/13 06:41:06;;;;;;;21.53;18.63;;;15.10;99.90;;;;;;5038971;28;20275;-71
2021/09/13 06:43:32;;;;;;;23.30;20.15;;;15.00;99.90;;;;;;5039620;28;20631;-71
2021/09/13 06:48:45;;;;;;;26.70;21.27;;;14.90;99.90;;;;;;5040470;28;20557;-71
2021/09/13 06:51:11;;;;;;;27.07;22.60;;;14.80;99.90;;;;;;5022355;28;20465;-71
2021/09/13 06:53:37;;;;;;;28.13;20.10;;;14.80;99.90;;;;;;5038105;28;20468;-71
2021/09/13 06:56:04;;;;;;;26.53;17.57;;;14.90;99.90;;;;;;5040168;28;20978;-71
2021/09/13 06:58:30;;;;;;;24.07;19.73;;;15.10;99.90;;;;;;5040251;28;20205;-71
2021/09/13 07:00:56;;;;;;;26.40;18.80;;;15.30;99.90;;;;;;5039648;28;20853;-72
2021/09/13 07:03:22;;;;;;;24.57;18.33;;;15.40;99.90;;;;;;5038825;28;20522;-72
2021/09/13 07:05:48;;;;;;;23.43;18.33;;;15.60;99.90;;;;;;5040461;28;20249;-71
2021/09/13 07:08:14;;;;;;;22.60;18.20;;;15.80;99.90;;;;;;5039914;28;20468;-71
2021/09/13 07:10:40;;;;;;;23.40;19.23;;;15.90;99.90;;;;;;5038649;28;20822;-72
2021/09/13 07:13:05;;;;;;;26.60;20.10;;;16.00;99.90;;;;;;5022915;28;20241;-72
2021/09/13 07:15:31;;;;;;;27.80;21.17;;;16.20;99.90;;;;;;5039348;28;20226;-72
2021/09/13 07:17:58;;;;;;;26.73;19.33;;;16.30;99.90;;;;;;5039646;28;20243;-71
2021/09/13 07:20:24;;;;;;;27.83;21.77;;;16.40;99.90;;;;;;5037646;28;20293;-71
2021/09/13 07:22:50;;;;;;;27.30;20.60;;;16.40;99.90;;;;;;5039652;28;20512;-71
2021/09/13 07:25:15;;;;;;;24.50;19.00;;;16.50;99.90;;;;;;5021895;28;20675;-73
2021/09/13 07:27:41;;;;;;;30.40;23.90;;;16.70;99.90;;;;;;5039467;28;20286;-72
2021/09/13 07:30:08;;;;;;;27.50;20.87;;;16.70;99.90;;;;;;5040134;28;20226;-72
2021/09/13 07:32:34;;;;;;;26.97;20.70;;;16.70;99.90;;;;;;5038408;28;20289;-71
2021/09/13 07:34:59;;;;;;;24.30;19.10;;;16.70;99.90;;;;;;5041314;28;20568;-72
2021/09/13 07:37:25;;;;;;;24.60;18.93;;;16.80;99.90;;;;;;5037941;28;20543;-71
2021/09/13 07:39:50;;;;;;;34.13;24.90;;;16.90;99.90;;;;;;5021837;28;20212;-71
2021/09/13 07:42:16;;;;;;;34.20;23.93;;;17.00;99.90;;;;;;5039390;28;20264;-71
2021/09/13 07:44:42;;;;;;;30.53;21.87;;;17.00;99.90;;;;;;5039365;28;20756;-72
2021/09/13 07:47:07;;;;;;;32.87;23.77;;;17.10;99.90;;;;;;5021668;28;20296;-71
2021/09/13 07:49:33;;;;;;;27.07;20.50;;;17.00;99.90;;;;;;5041611;28;20209;-71
2021/09/13 07:51:58;;;;;;;26.53;20.07;;;16.90;99.90;;;;;;5023667;28;20587;-72
2021/09/13 07:54:24;;;;;;;29.77;19.90;;;17.10;99.90;;;;;;5044057;28;20201;-72
2021/09/13 07:56:53;;;;;;;26.93;21.67;;;17.30;99.90;;;;;;5028655;28;20206;-72
2021/09/13 07:59:18;;;;;;;25.80;20.53;;;17.30;99.90;;;;;;5044151;28;20173;-72
2021/09/13 08:01:44;;;;;;;23.03;19.20;;;17.50;99.90;;;;;;5046335;28;20467;-72
2021/09/13 08:04:10;;;;;;;22.73;17.97;;;17.60;99.90;;;;;;5027885;28;20179;-72
2021/09/13 08:06:36;;;;;;;20.27;17.83;;;17.60;99.90;;;;;;5045225;28;20181;-71
2021/09/13 08:09:02;;;;;;;20.90;16.37;;;17.70;99.90;;;;;;5026867;28;20422;-72
2021/09/13 08:11:28;;;;;;;21.80;17.80;;;17.90;99.90;;;;;;5046226;28;20579;-72
2021/09/13 08:13:53;;;;;;;27.73;21.83;;;18.00;99.90;;;;;;5044806;28;20460;-71
2021/09/13 08:16:20;;;;;;;29.93;22.87;;;17.90;99.90;;;;;;5045877;28;20551;-72
2021/09/13 08:18:45;;;;;;;17.83;14.93;;;17.70;99.90;;;;;;5043724;28;20245;-72
2021/09/13 08:21:11;;;;;;;16.93;14.83;;;17.80;99.90;;;;;;5045732;28;20536;-72
2021/09/13 08:23:36;;;;;;;22.50;17.80;;;17.90;99.90;;;;;;5046280;28;20178;-72
2021/09/13 08:26:04;;;;;;;19.30;16.90;;;18.00;99.90;;;;;;5029008;28;20261;-72
2021/09/13 08:28:30;;;;;;;18.03;15.93;;;18.10;99.90;;;;;;5026729;28;20177;-72
2021/09/13 08:30:56;;;;;;;19.13;15.43;;;18.20;99.90;;;;;;5043409;28;20984;-72
2021/09/13 08:33:22;;;;;;;21.10;16.83;;;18.10;99.90;;;;;;5045804;28;20477;-70
2021/09/13 08:35:48;;;;;;;17.33;15.17;;;17.90;99.90;;;;;;5028540;28;20717;-71
2021/09/13 08:38:14;;;;;;;24.90;18.10;;;18.00;99.90;;;;;;5025387;28;20607;-71
2021/09/13 08:40:40;;;;;;;21.60;17.90;;;18.00;99.90;;;;;;5026769;28;20484;-71
2021/09/13 08:43:06;;;;;;;20.10;15.60;;;18.00;99.90;;;;;;5047086;28;20196;-71
2021/09/13 08:48:31;;;;;;;16.07;14.37;;;18.10;99.90;;;;;;5048784;28;20174;-71
2021/09/13 08:51:06;;;;;;;19.13;14.07;;;18.30;99.90;;;;;;5061935;28;20433;-72
2021/09/13 08:53:38;;;;;;;17.10;14.80;;;18.40;99.90;;;;;;5055609;28;20471;-72
2021/09/13 08:56:07;;;;;;;16.33;14.67;;;18.50;99.90;;;;;;5053302;28;20480;-71
2021/09/13 08:58:36;;;;;;;19.63;17.50;;;18.60;99.90;;;;;;5061931;28;20457;-71
2021/09/13 09:01:04;;;;;;;17.87;15.97;;;18.70;99.90;;;;;;5057361;28;20447;-72
2021/09/13 09:03:39;;;;;;;19.80;17.70;;;18.70;99.90;;;;;;5052338;28;21041;-71
2021/09/13 09:06:05;;;;;;;19.50;15.77;;;18.80;99.90;;;;;;5027024;28;20425;-71
2021/09/13 09:09:28;;;;;;;18.57;16.23;;;18.80;99.90;;;;;;5028148;28;20513;-71
2021/09/13 09:15:27;;;;;;;17.30;14.83;;;19.10;99.90;;;;;;4942283;29;20469;-71
2021/09/13 09:18:03;;;;;;;15.47;13.40;;;19.20;99.90;;;;;;4938279;29;20425;-71
2021/09/13 09:20:42;;;;;;;18.50;14.60;;;19.30;99.90;;;;;;4954681;28;20444;-72
2021/09/13 09:23:08;;;;;;;15.47;13.60;;;19.50;99.90;;;;;;4951463;28;20441;-72
2021/09/13 09:25:36;;;;;;;17.57;15.60;;;19.60;99.90;;;;;;4953436;29;20790;-71
2021/09/13 09:28:05;;;;;;;19.50;15.43;;;19.70;99.90;;;;;;4952492;29;20193;-72
2021/09/13 09:30:40;;;;;;;15.70;13.23;;;19.90;99.90;;;;;;4936885;29;20429;-71
2021/09/13 09:33:13;;;;;;;18.17;16.27;;;20.00;99.90;;;;;;4953237;28;20461;-71
2021/09/13 09:35:50;;;;;;;20.80;17.67;;;20.10;99.90;;;;;;4952027;29;20429;-71
2021/09/13 09:38:27;;;;;;;25.50;18.80;;;19.90;99.90;;;;;;4953106;29;20531;-71
2021/09/13 09:41:19;;;;;;;19.33;15.23;;;19.80;99.90;;;;;;4952821;29;20479;-72
2021/09/13 09:43:50;;;;;;;16.20;14.37;;;19.70;99.90;;;;;;4934301;29;20499;-72
2021/09/13 09:46:16;;;;;;;14.97;12.50;;;19.80;99.90;;;;;;4952314;29;20429;-71
2021/09/13 09:48:41;;;;;;;12.03;10.77;;;20.00;99.90;;;;;;4951097;29;20504;-72
2021/09/13 09:51:54;;;;;;;10.77;9.17;;;20.00;99.90;;;;;;5023822;28;20484;-71
2021/09/13 09:54:21;;;;;;;12.20;10.40;;;20.10;99.90;;;;;;4952904;28;20213;-71
2021/09/13 09:56:56;;;;;;;14.13;11.93;;;20.10;99.90;;;;;;4952325;28;20437;-70
2021/09/13 09:59:22;;;;;;;10.30;8.83;;;20.20;99.90;;;;;;4953049;28;20628;-71
2021/09/13 10:01:49;;;;;;;10.60;8.77;;;20.10;99.90;;;;;;4952559;28;20910;-71
2021/09/13 10:04:14;;;;;;;12.77;9.30;;;20.10;99.90;;;;;;4952798;28;20208;-71
2021/09/13 10:06:42;;;;;;;10.23;9.20;;;20.30;99.90;;;;;;4952467;28;20478;-72
2021/09/13 10:09:08;;;;;;;10.40;8.70;;;20.40;99.90;;;;;;4951723;28;20185;-72
2021/09/13 10:11:35;;;;;;;9.33;8.30;;;20.50;99.90;;;;;;4936596;29;20453;-72
2021/09/13 10:14:01;;;;;;;9.30;8.40;;;20.60;99.90;;;;;;4952766;28;20573;-71
2021/09/13 10:16:28;;;;;;;9.00;8.20;;;20.40;99.90;;;;;;4952326;28;20476;-72
2021/09/13 10:18:54;;;;;;;8.13;7.20;;;20.30;99.90;;;;;;4952719;28;20424;-72
2021/09/13 10:21:19;;;;;;;6.03;5.43;;;20.30;99.80;;;;;;4953304;28;20871;-72
2021/09/13 10:23:45;;;;;;;5.17;4.67;;;20.30;99.20;;;;;;4953955;28;20268;-72
2021/09/13 10:26:12;;;;;;;6.50;5.90;;;20.40;99.90;;;;;;4953801;28;20185;-72
2021/09/13 10:29:02;;;;;;;7.03;6.33;;;20.40;97.70;;;;;;4951444;28;20509;-71
2021/09/13 10:31:44;;;;;;;8.37;7.47;;;20.40;98.20;;;;;;5024760;28;20445;-71
2021/09/13 10:34:20;;;;;;;9.40;8.50;;;20.50;98.90;;;;;;5041269;28;20481;-71
2021/09/13 10:37:21;;;;;;;9.80;8.73;;;20.40;99.20;;;;;;5042547;28;20913;-72
2021/09/13 10:40:10;;;;;;;9.60;7.80;;;20.40;99.80;;;;;;5042978;28;20245;-71
2021/09/13 10:42:51;;;;;;;9.30;8.30;;;20.50;99.90;;;;;;5043047;28;20430;-71
2021/09/13 10:45:37;;;;;;;11.57;9.00;;;20.70;99.90;;;;;;5025353;28;20472;-71
2021/09/13 10:48:19;;;;;;;9.20;8.30;;;20.80;99.10;;;;;;5025060;28;20430;-73
2021/09/13 10:50:50;;;;;;;10.13;8.63;;;20.80;99.50;;;;;;5042309;28;20964;-73
2021/09/13 10:53:18;;;;;;;12.20;9.37;;;21.00;99.60;;;;;;5023775;28;20461;-73
2021/09/13 10:55:55;;;;;;;9.73;8.50;;;20.70;99.30;;;;;;5042289;28;20852;-71
2021/09/13 10:58:41;;;;;;;9.63;8.30;;;20.70;99.80;;;;;;5042221;28;20864;-71
2021/09/13 11:01:10;;;;;;;9.93;8.93;;;20.90;99.70;;;;;;5041958;28;20456;-71
2021/09/13 11:03:37;;;;;;;9.80;8.27;;;21.10;99.60;;;;;;5042804;28;20851;-71
2021/09/13 11:06:06;;;;;;;11.17;8.20;;;21.20;99.20;;;;;;5042136;28;20409;-72
2021/09/13 11:08:35;;;;;;;10.20;8.90;;;21.30;99.40;;;;;;5023981;28;20522;-71
2021/09/13 11:11:02;;;;;;;10.17;8.50;;;21.30;98.30;;;;;;5024250;28;20452;-72
2021/09/13 11:13:27;;;;;;;7.30;6.30;;;21.40;98.80;;;;;;5023354;28;20555;-72
2021/09/13 11:15:53;;;;;;;6.60;6.00;;;21.50;98.00;;;;;;5042202;28;20488;-71
2021/09/13 11:18:35;;;;;;;7.30;6.60;;;21.60;97.00;;;;;;5040901;28;20182;-72
2021/09/13 11:21:18;;;;;;;6.60;6.00;;;21.60;96.80;;;;;;5042149;28;20268;-72
2021/09/13 11:24:07;;;;;;;6.70;6.10;;;21.70;97.00;;;;;;5039971;28;20440;-72
2021/09/13 11:26:41;;;;;;;7.00;5.87;;;21.80;97.00;;;;;;5040376;28;20424;-72
2021/09/13 11:29:22;;;;;;;6.90;6.30;;;21.90;96.80;;;;;;5040372;28;20748;-72
2021/09/13 11:31:50;;;;;;;6.93;6.20;;;22.00;96.50;;;;;;5041549;28;20426;-72
2021/09/13 11:34:16;;;;;;;6.83;6.10;;;22.00;96.20;;;;;;5042079;28;20468;-72
2021/09/13 11:36:52;;;;;;;7.60;6.80;;;22.00;95.70;;;;;;5040766;28;20433;-71
2021/09/13 11:39:19;;;;;;;6.10;5.53;;;22.10;95.80;;;;;;5041299;28;20198;-71
2021/09/13 11:42:01;;;;;;;6.97;6.17;;;22.10;95.70;;;;;;5042342;28;20523;-72
2021/09/13 11:44:28;;;;;;;6.40;5.80;;;22.20;95.50;;;;;;5024638;28;20436;-72
2021/09/13 11:46:55;;;;;;;6.63;5.93;;;22.30;95.30;;;;;;5023826;28;20933;-71
2021/09/13 11:49:30;;;;;;;6.97;6.27;;;22.30;94.70;;;;;;5024515;28;20462;-72
2021/09/13 11:51:59;;;;;;;6.87;6.27;;;22.30;95.00;;;;;;5041518;28;20490;-72
2021/09/13 11:54:25;;;;;;;8.00;6.23;;;22.40;95.20;;;;;;5040395;28;20480;-71
2021/09/13 11:56:51;;;;;;;8.65;7.10;;;22.30;94.90;;;;;;5041469;28;20413;-72
2021/09/13 11:59:23;;;;;;;7.60;6.90;;;22.40;94.90;;;;;;5043680;28;20536;-71
2021/09/13 12:02:01;;;;;;;7.93;7.10;;;22.20;94.40;;;;;;5045018;28;20213;-71
2021/09/13 12:04:30;;;;;;;7.07;6.37;;;22.20;94.50;;;;;;5050693;28;20435;-72
2021/09/13 12:07:05;;;;;;;7.13;6.17;;;22.20;94.40;;;;;;5059773;28;20440;-73
2021/09/13 12:09:31;;;;;;;6.40;5.67;;;22.20;94.50;;;;;;5047742;28;20933;-72
2021/09/13 12:11:57;;;;;;;6.70;6.10;;;22.20;94.40;;;;;;5056374;28;20440;-70
2021/09/13 12:14:23;;;;;;;6.80;6.07;;;22.30;94.60;;;;;;5062165;28;20508;-70
2021/09/13 12:17:09;;;;;;;5.80;5.00;;;22.40;95.50;;;;;;5049387;28;20435;-72
2021/09/13 12:19:38;;;;;;;9.43;8.50;;;22.50;95.90;;;;;;5039824;28;20183;-72
2021/09/13 12:22:06;;;;;;;15.33;11.63;;;22.40;94.20;;;;;;5041331;28;20452;-71
2021/09/13 12:24:32;;;;;;;8.13;7.17;;;22.40;94.70;;;;;;5039891;28;20449;-72
2021/09/13 12:27:22;;;;;;;8.00;7.20;;;22.50;94.50;;;;;;5041559;28;20439;-73
2021/09/13 12:29:50;;;;;;;13.13;11.03;;;22.50;94.50;;;;;;5040474;28;20827;-74
2021/09/13 12:32:30;;;;;;;9.87;8.90;;;22.30;96.40;;;;;;5041303;28;20445;-72
2021/09/13 12:35:07;;;;;;;13.50;10.47;;;22.10;96.50;;;;;;5040306;28;20545;-71
2021/09/13 12:37:37;;;;;;;10.30;9.10;;;22.00;97.30;;;;;;5042346;28;20519;-71
2021/09/13 12:40:06;;;;;;;9.47;8.47;;;21.90;97.40;;;;;;5043528;28;20459;-72
2021/09/13 12:42:32;;;;;;;10.47;8.90;;;21.80;97.60;;;;;;5039941;28;20803;-70
2021/09/13 12:45:02;;;;;;;10.43;8.87;;;21.70;97.60;;;;;;5040595;28;20457;-71
2021/09/13 12:47:28;;;;;;;8.73;7.87;;;21.50;97.80;;;;;;5040509;28;20233;-72